CDT,Max TemperatureF,Mean TemperatureF,Min TemperatureF,Max Dew PointF,MeanDew PointF,Min DewpointF,Max Humidity, Mean Humidity, Min Humidity, Max Sea Level PressureIn, Mean Sea Level PressureIn, Min Sea Level PressureIn, Max VisibilityMiles, Mean VisibilityMiles, Min VisibilityMiles, Max Wind SpeedMPH, Mean Wind SpeedMPH, Max Gust SpeedMPH,PrecipitationIn, CloudCover, Events, WindDirDegrees
2013-5-1,70,56,42,50,42,34,76,59,39,30.27,30.09,29.86,10,10,10,26,12,38,0.00,2,,1
2013-5-2,42,38,33,36,34,32,96,90,71,30.40,30.34,30.25,10,5,1,23,18,38,0.08,8,Rain-Snow,352
2013-5-3,36,34,32,33,32,32,96,93,84,30.31,30.09,29.93,10,5,0,20,12,25,0.08,8,Rain-Snow,350
2013-5-4,58,46,34,55,46,33,97,94,78,30.06,29.95,29.86,10,5,0,14,8,18,0.21,8,Fog-Rain,353
2013-5-5,66,55,44,57,50,44,98,91,70,30.11,30.06,30.03,10,5,0,15,7,20,0.01,6,Fog,314
2013-5-6,75,60,46,55,49,46,97,72,35,30.11,30.06,30.02,10,7,1,10,7,17,0.00,2,,294
2013-5-7,79,64,48,52,48,44,93,57,30,30.08,30.04,29.99,10,10,5,8,3,,0.00,0,,269
2013-5-8,75,64,53,58,52,46,93,67,42,30.03,30.00,29.94,10,10,7,9,2,16,0.01,1,Rain,176
2013-5-9,70,64,57,62,58,54,96,85,60,29.94,29.88,29.84,10,9,4,17,6,20,0.09,5,Rain,266
2013-5-10,64,57,50,54,50,47,95,81,59,30.05,29.99,29.90,10,9,3,16,11,23,0.00,6,,344
2013-5-11,57,50,43,49,33,21,92,51,26,30.20,30.11,29.97,10,10,10,31,14,44,0.00,1,,310
2013-5-12,61,48,34,32,26,22,71,42,24,30.27,30.20,30.14,10,10,10,17,8,25,0.00,0,,292
2013-5-13,76,58,41,47,37,27,63,44,28,30.17,30.06,29.88,10,10,10,20,5,28,0.00,0,,186
2013-5-14,93,77,61,60,54,47,76,46,27,29.88,29.75,29.65,10,10,10,25,11,32,0.00,0,,213
2013-5-15,83,72,61,50,44,39,62,36,21,29.93,29.86,29.77,10,10,10,12,6,18,0.00,0,Rain,42
2013-5-16,83,72,60,62,57,46,79,61,41,29.94,29.89,29.83,10,10,7,14,6,17,0.00,1,Rain,134
2013-5-17,80,70,61,61,59,56,93,68,44,29.96,29.93,29.87,10,10,7,14,6,18,0.00,1,,153
2013-5-18,85,73,61,64,61,58,94,67,42,29.98,29.92,29.82,10,9,2,16,6,21,0.00,1,,132
2013-5-19,89,75,61,66,62,58,95,66,35,29.84,29.72,29.55,10,9,1,21,12,31,1.29,2,Rain,151
2013-5-20,81,71,61,63,59,55,95,70,44,29.70,29.65,29.57,10,10,4,22,11,29,0.03,1,Rain,187
2013-5-21,73,65,57,60,54,48,94,68,45,29.71,29.67,29.60,10,10,10,17,9,24,0.00,3,,228
2013-5-22,65,60,54,56,52,49,89,79,66,29.88,29.74,29.67,10,10,5,17,7,23,0.00,6,Rain,261
2013-5-23,71,62,53,52,48,40,95,67,33,30.28,30.10,29.89,10,9,2,16,10,23,0.00,5,Rain,359
2013-5-24,70,58,47,49,44,40,80,57,37,30.40,30.31,30.22,10,10,10,17,6,22,0.00,1,Rain,133
2013-5-25,59,54,50,53,49,45,95,84,58,30.32,30.21,30.16,10,8,1,21,10,30,1.60,7,Rain,115
2013-5-26,62,57,52,60,53,48,95,88,81,30.16,30.08,29.91,10,8,3,23,12,30,0.41,7,Rain,105
2013-5-27,76,68,60,64,61,58,97,84,59,30.01,29.85,29.75,10,7,1,21,6,34,0.26,6,Rain,135
2013-5-28,77,70,64,71,65,59,96,90,77,29.82,29.72,29.64,10,9,3,18,5,25,0.45,4,Rain,172
2013-5-29,83,73,63,70,65,58,93,76,62,29.85,29.78,29.70,10,10,10,18,11,26,0.02,2,Rain,161
2013-5-30,76,70,63,65,61,59,91,73,60,29.73,29.69,29.60,10,10,4,21,14,28,0.06,2,Rain,170
2013-5-31,76,68,61,65,61,57,94,78,58,29.77,29.71,29.66,10,10,10,20,10,30,0.00,3,,172